LKS YPAD-YREN
Flight info
| Callsign | LKS |
|---|---|
| Flight time | 0h 48m |
| Altitude | 7000 |
| Route | AD V361 UPROT DCT DOVOD |
| Aircraft | C208/L-SDFGR/C |
Departure
| Time | 2026-04-29 05:05 |
|---|---|
| Airport | Adelaide International Airport (YPAD) |
Arrival
| Time | 2026-04-29 05:53 |
|---|---|
| Airport | Renmark Airport (YREN) |
| Time | Latitude | Longitude | Altitude | Speed | Heading |
|---|---|---|---|---|---|
| 2026-04-29 04:48 | -34.93926 | 138.53248 | 26 ft | 0 kts | 50° |
| 2026-04-29 04:57 | -34.93909 | 138.53262 | 26 ft | 7 kts | 340° |
| 2026-04-29 04:57 | -34.93841 | 138.53193 | 26 ft | 11 kts | 320° |
| 2026-04-29 04:57 | -34.93849 | 138.53092 | 21 ft | 18 kts | 240° |
| 2026-04-29 04:58 | -34.93947 | 138.52963 | 21 ft | 22 kts | 197° |
| 2026-04-29 04:58 | -34.94115 | 138.52924 | 21 ft | 23 kts | 190° |
| 2026-04-29 04:58 | -34.94290 | 138.52917 | 22 ft | 26 kts | 177° |
| 2026-04-29 04:58 | -34.94428 | 138.53016 | 22 ft | 21 kts | 192° |
| 2026-04-29 04:59 | -34.94489 | 138.52958 | 22 ft | 25 kts | 218° |
| 2026-04-29 04:59 | -34.94598 | 138.52860 | 20 ft | 31 kts | 217° |
| 2026-04-29 04:59 | -34.94791 | 138.52678 | 19 ft | 37 kts | 217° |
| 2026-04-29 04:59 | -34.94958 | 138.52519 | 19 ft | 32 kts | 218° |
| 2026-04-29 05:00 | -34.95116 | 138.52453 | 19 ft | 20 kts | 164° |
| 2026-04-29 05:00 | -34.95176 | 138.52495 | 19 ft | 0 kts | 142° |
| 2026-04-29 05:03 | -34.95177 | 138.52496 | 19 ft | 2 kts | 142° |
| 2026-04-29 05:04 | -34.95249 | 138.52580 | 20 ft | 19 kts | 100° |
| 2026-04-29 05:04 | -34.95118 | 138.52794 | 19 ft | 62 kts | 55° |
| 2026-04-29 05:04 | -34.94758 | 138.53295 | 125 ft | 86 kts | 53° |
| 2026-04-29 05:04 | -34.94392 | 138.53817 | 438 ft | 79 kts | 45° |
| 2026-04-29 05:05 | -34.94007 | 138.54308 | 688 ft | 81 kts | 45° |
| 2026-04-29 05:05 | -34.93546 | 138.54659 | 924 ft | 82 kts | 14° |
| 2026-04-29 05:05 | -34.93008 | 138.54829 | 1184 ft | 80 kts | 3° |
| 2026-04-29 05:05 | -34.92540 | 138.54765 | 1357 ft | 84 kts | 344° |
| 2026-04-29 05:06 | -34.91995 | 138.54551 | 1609 ft | 86 kts | 338° |
| 2026-04-29 05:06 | -34.91403 | 138.54359 | 1808 ft | 93 kts | 341° |
| 2026-04-29 05:06 | -34.90743 | 138.54390 | 1944 ft | 104 kts | 2° |
| 2026-04-29 05:06 | -34.89891 | 138.54395 | 1890 ft | 143 kts | 356° |
| 2026-04-29 05:07 | -34.88879 | 138.54284 | 2131 ft | 140 kts | 350° |
| 2026-04-29 05:07 | -34.87968 | 138.54097 | 2499 ft | 130 kts | 348° |
| 2026-04-29 05:07 | -34.87100 | 138.53898 | 2859 ft | 125 kts | 347° |
| 2026-04-29 05:07 | -34.86271 | 138.53997 | 3192 ft | 122 kts | 34° |
| 2026-04-29 05:08 | -34.85706 | 138.54746 | 3555 ft | 118 kts | 46° |
| 2026-04-29 05:08 | -34.85156 | 138.55472 | 3921 ft | 115 kts | 47° |
| 2026-04-29 05:08 | -34.84752 | 138.56288 | 4273 ft | 112 kts | 69° |
| 2026-04-29 05:08 | -34.84449 | 138.57150 | 4641 ft | 109 kts | 65° |
| 2026-04-29 05:09 | -34.84145 | 138.57987 | 5003 ft | 107 kts | 65° |
| 2026-04-29 05:09 | -34.83846 | 138.58792 | 5360 ft | 104 kts | 65° |
| 2026-04-29 05:09 | -34.83586 | 138.59492 | 5674 ft | 102 kts | 64° |
| 2026-04-29 05:09 | -34.83299 | 138.60261 | 6030 ft | 97 kts | 64° |
| 2026-04-29 05:10 | -34.83026 | 138.60991 | 6371 ft | 92 kts | 63° |
| 2026-04-29 05:10 | -34.82750 | 138.61704 | 6733 ft | 97 kts | 64° |
| 2026-04-29 05:10 | -34.82438 | 138.62588 | 6822 ft | 132 kts | 66° |
| 2026-04-29 05:10 | -34.82039 | 138.63718 | 6839 ft | 160 kts | 66° |
| 2026-04-29 05:11 | -34.81561 | 138.65025 | 6779 ft | 175 kts | 66° |
| 2026-04-29 05:11 | -34.81057 | 138.66385 | 6762 ft | 177 kts | 65° |
| 2026-04-29 05:11 | -34.80545 | 138.67750 | 6762 ft | 177 kts | 65° |
| 2026-04-29 05:11 | -34.80036 | 138.69115 | 6761 ft | 177 kts | 65° |
| 2026-04-29 05:12 | -34.79527 | 138.70484 | 6759 ft | 177 kts | 65° |
| 2026-04-29 05:12 | -34.79017 | 138.71848 | 6757 ft | 177 kts | 65° |
| 2026-04-29 05:12 | -34.78841 | 138.72324 | 6756 ft | 177 kts | 66° |
| 2026-04-29 05:15 | -34.78654 | 138.72827 | 6755 ft | 177 kts | 65° |
| 2026-04-29 05:15 | -34.78149 | 138.74169 | 6756 ft | 177 kts | 65° |
| 2026-04-29 05:15 | -34.77642 | 138.75532 | 6755 ft | 177 kts | 65° |
| 2026-04-29 05:16 | -34.77132 | 138.76898 | 6755 ft | 177 kts | 66° |
| 2026-04-29 05:16 | -34.76623 | 138.78267 | 6755 ft | 177 kts | 65° |
| 2026-04-29 05:16 | -34.76114 | 138.79631 | 6754 ft | 177 kts | 65° |
| 2026-04-29 05:16 | -34.75603 | 138.80993 | 6756 ft | 177 kts | 65° |
| 2026-04-29 05:17 | -34.75100 | 138.82341 | 6756 ft | 177 kts | 65° |
| 2026-04-29 05:17 | -34.74589 | 138.83704 | 6755 ft | 177 kts | 65° |
| 2026-04-29 05:17 | -34.74078 | 138.85068 | 6755 ft | 177 kts | 65° |
| 2026-04-29 05:17 | -34.73568 | 138.86431 | 6756 ft | 177 kts | 65° |
| 2026-04-29 05:18 | -34.73059 | 138.87796 | 6756 ft | 178 kts | 65° |
| 2026-04-29 05:18 | -34.72545 | 138.89166 | 6757 ft | 178 kts | 65° |
| 2026-04-29 05:18 | -34.72033 | 138.90530 | 6754 ft | 177 kts | 65° |
| 2026-04-29 05:18 | -34.71693 | 138.91437 | 6756 ft | 177 kts | 65° |
| 2026-04-29 05:19 | -34.71013 | 138.93248 | 6755 ft | 177 kts | 65° |
| 2026-04-29 05:19 | -34.70502 | 138.94610 | 6755 ft | 177 kts | 65° |
| 2026-04-29 05:19 | -34.69991 | 138.95974 | 6755 ft | 177 kts | 65° |
| 2026-04-29 05:19 | -34.69478 | 138.97335 | 6755 ft | 177 kts | 65° |
| 2026-04-29 05:20 | -34.68967 | 138.98697 | 6755 ft | 177 kts | 65° |
| 2026-04-29 05:20 | -34.68454 | 139.00060 | 6754 ft | 177 kts | 65° |
| 2026-04-29 05:20 | -34.68114 | 139.00963 | 6755 ft | 177 kts | 65° |
| 2026-04-29 05:20 | -34.67602 | 139.02326 | 6755 ft | 177 kts | 65° |
| 2026-04-29 05:21 | -34.67089 | 139.03689 | 6755 ft | 177 kts | 65° |
| 2026-04-29 05:21 | -34.66667 | 139.04813 | 6754 ft | 177 kts | 65° |
| 2026-04-29 05:21 | -34.66160 | 139.06156 | 6755 ft | 177 kts | 65° |
| 2026-04-29 05:21 | -34.65646 | 139.07520 | 6754 ft | 177 kts | 65° |
| 2026-04-29 05:22 | -34.65139 | 139.08868 | 6754 ft | 177 kts | 65° |
| 2026-04-29 05:22 | -34.64625 | 139.10227 | 6755 ft | 177 kts | 65° |
| 2026-04-29 05:22 | -34.64110 | 139.11590 | 6754 ft | 177 kts | 65° |
| 2026-04-29 05:22 | -34.63597 | 139.12951 | 6755 ft | 177 kts | 65° |
| 2026-04-29 05:23 | -34.63082 | 139.14313 | 6755 ft | 177 kts | 65° |
| 2026-04-29 05:23 | -34.62575 | 139.15660 | 6755 ft | 177 kts | 65° |
| 2026-04-29 05:23 | -34.62060 | 139.17019 | 6754 ft | 177 kts | 65° |
| 2026-04-29 05:23 | -34.61548 | 139.18379 | 6755 ft | 177 kts | 65° |
| 2026-04-29 05:24 | -34.61026 | 139.19758 | 6754 ft | 177 kts | 65° |
| 2026-04-29 05:24 | -34.60516 | 139.21105 | 6753 ft | 177 kts | 65° |
| 2026-04-29 05:24 | -34.60001 | 139.22463 | 6754 ft | 177 kts | 65° |
| 2026-04-29 05:24 | -34.59486 | 139.23823 | 6754 ft | 177 kts | 65° |
| 2026-04-29 05:25 | -34.58970 | 139.25180 | 6753 ft | 177 kts | 65° |
| 2026-04-29 05:25 | -34.58456 | 139.26540 | 6753 ft | 177 kts | 65° |
| 2026-04-29 05:25 | -34.57941 | 139.27898 | 6752 ft | 177 kts | 65° |
| 2026-04-29 05:25 | -34.57433 | 139.29239 | 6752 ft | 177 kts | 65° |
| 2026-04-29 05:26 | -34.56916 | 139.30598 | 6753 ft | 177 kts | 65° |
| 2026-04-29 05:26 | -34.56510 | 139.32011 | 6750 ft | 177 kts | 72° |
| 2026-04-29 05:26 | -34.55850 | 139.33242 | 6750 ft | 176 kts | 45° |
| 2026-04-29 05:26 | -34.54981 | 139.34294 | 6750 ft | 176 kts | 37° |
| 2026-04-29 05:27 | -34.53932 | 139.35047 | 6755 ft | 176 kts | 28° |
| 2026-04-29 05:27 | -34.51790 | 139.36469 | 6758 ft | 177 kts | 28° |
| 2026-04-29 05:27 | -34.50705 | 139.37184 | 6758 ft | 177 kts | 28° |
| 2026-04-29 05:28 | -34.49626 | 139.37898 | 6758 ft | 177 kts | 28° |
| 2026-04-29 05:28 | -34.48545 | 139.38612 | 6759 ft | 177 kts | 28° |
| 2026-04-29 05:28 | -34.47471 | 139.39344 | 6756 ft | 177 kts | 34° |
| 2026-04-29 05:28 | -34.46790 | 139.40552 | 6740 ft | 177 kts | 77° |
| 2026-04-29 05:29 | -34.46691 | 139.42012 | 6752 ft | 176 kts | 83° |
| 2026-04-29 05:29 | -34.46456 | 139.43468 | 6758 ft | 176 kts | 77° |
| 2026-04-29 05:29 | -34.46162 | 139.44910 | 6761 ft | 176 kts | 76° |
| 2026-04-29 05:29 | -34.45864 | 139.46352 | 6762 ft | 176 kts | 76° |
| 2026-04-29 05:30 | -34.45567 | 139.47795 | 6763 ft | 177 kts | 76° |
| 2026-04-29 05:30 | -34.45270 | 139.49241 | 6762 ft | 176 kts | 76° |
| 2026-04-29 05:30 | -34.44972 | 139.50690 | 6762 ft | 177 kts | 76° |
| 2026-04-29 05:30 | -34.44679 | 139.52116 | 6763 ft | 177 kts | 76° |
| 2026-04-29 05:31 | -34.44380 | 139.53566 | 6762 ft | 177 kts | 76° |
| 2026-04-29 05:31 | -34.44082 | 139.55013 | 6761 ft | 177 kts | 76° |
| 2026-04-29 05:31 | -34.43784 | 139.56457 | 6761 ft | 177 kts | 76° |
| 2026-04-29 05:31 | -34.43485 | 139.57900 | 6762 ft | 177 kts | 76° |
| 2026-04-29 05:32 | -34.43187 | 139.59347 | 6763 ft | 177 kts | 76° |
| 2026-04-29 05:32 | -34.42888 | 139.60795 | 6761 ft | 177 kts | 76° |
| 2026-04-29 05:32 | -34.42589 | 139.62239 | 6763 ft | 177 kts | 76° |
| 2026-04-29 05:32 | -34.42292 | 139.63675 | 6753 ft | 178 kts | 76° |
| 2026-04-29 05:33 | -34.41987 | 139.65151 | 6630 ft | 182 kts | 76° |
| 2026-04-29 05:33 | -34.41676 | 139.66649 | 6508 ft | 184 kts | 76° |
| 2026-04-29 05:33 | -34.41366 | 139.68154 | 6385 ft | 184 kts | 76° |
| 2026-04-29 05:33 | -34.41052 | 139.69658 | 6260 ft | 184 kts | 76° |
| 2026-04-29 05:34 | -34.40739 | 139.71163 | 6133 ft | 184 kts | 76° |
| 2026-04-29 05:34 | -34.40428 | 139.72670 | 6007 ft | 184 kts | 76° |
| 2026-04-29 05:34 | -34.40115 | 139.74171 | 5883 ft | 184 kts | 76° |
| 2026-04-29 05:34 | -34.39808 | 139.75650 | 5760 ft | 183 kts | 76° |
| 2026-04-29 05:35 | -34.39495 | 139.77151 | 5635 ft | 183 kts | 76° |
| 2026-04-29 05:35 | -34.39183 | 139.78646 | 5511 ft | 183 kts | 76° |
| 2026-04-29 05:35 | -34.38870 | 139.80140 | 5384 ft | 183 kts | 76° |
| 2026-04-29 05:35 | -34.38561 | 139.81630 | 5259 ft | 182 kts | 76° |
| 2026-04-29 05:36 | -34.38252 | 139.83123 | 5137 ft | 182 kts | 76° |
| 2026-04-29 05:36 | -34.37937 | 139.84610 | 5011 ft | 183 kts | 76° |
| 2026-04-29 05:36 | -34.37627 | 139.86101 | 4886 ft | 183 kts | 76° |
| 2026-04-29 05:36 | -34.37315 | 139.87591 | 4764 ft | 183 kts | 76° |
| 2026-04-29 05:37 | -34.37003 | 139.89081 | 4636 ft | 182 kts | 76° |
| 2026-04-29 05:37 | -34.36691 | 139.90567 | 4509 ft | 182 kts | 76° |
| 2026-04-29 05:37 | -34.36385 | 139.92048 | 4385 ft | 181 kts | 76° |
| 2026-04-29 05:37 | -34.36074 | 139.93529 | 4258 ft | 181 kts | 76° |
| 2026-04-29 05:38 | -34.35765 | 139.94984 | 4135 ft | 181 kts | 76° |
| 2026-04-29 05:38 | -34.35456 | 139.96458 | 4008 ft | 180 kts | 76° |
| 2026-04-29 05:38 | -34.35149 | 139.97926 | 3882 ft | 179 kts | 76° |
| 2026-04-29 05:38 | -34.34841 | 139.99390 | 3769 ft | 180 kts | 76° |
| 2026-04-29 05:39 | -34.34532 | 140.00859 | 3636 ft | 180 kts | 76° |
| 2026-04-29 05:39 | -34.34221 | 140.02329 | 3511 ft | 180 kts | 76° |
| 2026-04-29 05:39 | -34.33912 | 140.03797 | 3387 ft | 179 kts | 76° |
| 2026-04-29 05:39 | -34.33608 | 140.05242 | 3259 ft | 179 kts | 76° |
| 2026-04-29 05:40 | -34.33304 | 140.06709 | 3137 ft | 179 kts | 76° |
| 2026-04-29 05:40 | -34.32994 | 140.08173 | 3012 ft | 180 kts | 75° |
| 2026-04-29 05:40 | -34.32677 | 140.09636 | 2888 ft | 180 kts | 76° |
| 2026-04-29 05:40 | -34.32372 | 140.11104 | 2757 ft | 179 kts | 76° |
| 2026-04-29 05:41 | -34.32064 | 140.12560 | 2633 ft | 178 kts | 76° |
| 2026-04-29 05:41 | -34.31755 | 140.14013 | 2507 ft | 178 kts | 76° |
| 2026-04-29 05:41 | -34.31456 | 140.15440 | 2386 ft | 177 kts | 76° |
| 2026-04-29 05:41 | -34.31149 | 140.16888 | 2262 ft | 178 kts | 76° |
| 2026-04-29 05:42 | -34.30838 | 140.18335 | 2132 ft | 177 kts | 76° |
| 2026-04-29 05:42 | -34.30533 | 140.19780 | 2006 ft | 176 kts | 76° |
| 2026-04-29 05:42 | -34.30231 | 140.21221 | 1881 ft | 176 kts | 76° |
| 2026-04-29 05:42 | -34.29920 | 140.22661 | 1756 ft | 176 kts | 76° |
| 2026-04-29 05:43 | -34.29618 | 140.24097 | 1655 ft | 174 kts | 76° |
| 2026-04-29 05:43 | -34.29324 | 140.25478 | 1653 ft | 170 kts | 76° |
| 2026-04-29 05:43 | -34.29032 | 140.26854 | 1650 ft | 168 kts | 76° |
| 2026-04-29 05:43 | -34.28739 | 140.28223 | 1648 ft | 168 kts | 76° |
| 2026-04-29 05:44 | -34.28448 | 140.29588 | 1647 ft | 168 kts | 76° |
| 2026-04-29 05:44 | -34.28158 | 140.30954 | 1645 ft | 167 kts | 76° |
| 2026-04-29 05:44 | -34.27866 | 140.32321 | 1645 ft | 168 kts | 76° |
| 2026-04-29 05:44 | -34.27577 | 140.33668 | 1645 ft | 167 kts | 76° |
| 2026-04-29 05:45 | -34.27285 | 140.35036 | 1650 ft | 169 kts | 76° |
| 2026-04-29 05:45 | -34.26992 | 140.36412 | 1648 ft | 169 kts | 75° |
| 2026-04-29 05:45 | -34.26657 | 140.37770 | 1649 ft | 169 kts | 74° |
| 2026-04-29 05:45 | -34.26347 | 140.39138 | 1649 ft | 169 kts | 75° |
| 2026-04-29 05:46 | -34.26032 | 140.40505 | 1647 ft | 169 kts | 75° |
| 2026-04-29 05:46 | -34.25713 | 140.41871 | 1649 ft | 169 kts | 75° |
| 2026-04-29 05:46 | -34.25392 | 140.43238 | 1648 ft | 170 kts | 74° |
| 2026-04-29 05:46 | -34.25065 | 140.44627 | 1479 ft | 165 kts | 75° |
| 2026-04-29 05:47 | -34.24788 | 140.45836 | 1247 ft | 140 kts | 75° |
| 2026-04-29 05:47 | -34.24535 | 140.46908 | 1023 ft | 119 kts | 74° |
| 2026-04-29 05:47 | -34.24331 | 140.47768 | 773 ft | 99 kts | 75° |
| 2026-04-29 05:47 | -34.24132 | 140.48560 | 748 ft | 98 kts | 72° |
| 2026-04-29 05:48 | -34.23938 | 140.49361 | 754 ft | 103 kts | 73° |
| 2026-04-29 05:48 | -34.23737 | 140.50215 | 763 ft | 108 kts | 73° |
| 2026-04-29 05:48 | -34.23527 | 140.51104 | 764 ft | 112 kts | 74° |
| 2026-04-29 05:48 | -34.23316 | 140.52003 | 763 ft | 113 kts | 74° |
| 2026-04-29 05:49 | -34.23103 | 140.52914 | 761 ft | 112 kts | 73° |
| 2026-04-29 05:49 | -34.22888 | 140.53822 | 758 ft | 112 kts | 73° |
| 2026-04-29 05:49 | -34.22673 | 140.54730 | 759 ft | 112 kts | 74° |
| 2026-04-29 05:49 | -34.22460 | 140.55643 | 755 ft | 113 kts | 74° |
| 2026-04-29 05:50 | -34.22244 | 140.56558 | 757 ft | 113 kts | 74° |
| 2026-04-29 05:50 | -34.22027 | 140.57473 | 758 ft | 113 kts | 73° |
| 2026-04-29 05:50 | -34.21811 | 140.58392 | 757 ft | 114 kts | 73° |
| 2026-04-29 05:50 | -34.21596 | 140.59298 | 755 ft | 113 kts | 74° |
| 2026-04-29 05:51 | -34.21380 | 140.60215 | 751 ft | 113 kts | 74° |
| 2026-04-29 05:51 | -34.21163 | 140.61125 | 751 ft | 112 kts | 72° |
| 2026-04-29 05:51 | -34.20951 | 140.62022 | 715 ft | 107 kts | 74° |
| 2026-04-29 05:51 | -34.20760 | 140.62800 | 567 ft | 92 kts | 76° |
| 2026-04-29 05:52 | -34.20601 | 140.63541 | 496 ft | 90 kts | 73° |
| 2026-04-29 05:52 | -34.20442 | 140.64259 | 446 ft | 88 kts | 74° |
| 2026-04-29 05:52 | -34.20265 | 140.64971 | 320 ft | 89 kts | 73° |
| 2026-04-29 05:52 | -34.20101 | 140.65667 | 172 ft | 82 kts | 73° |
| 2026-04-29 05:53 | -34.19963 | 140.66246 | 121 ft | 60 kts | 74° |
| 2026-04-29 05:53 | -34.19860 | 140.66671 | 117 ft | 48 kts | 74° |
| 2026-04-29 05:53 | -34.19773 | 140.67031 | 116 ft | 42 kts | 75° |
| 2026-04-29 05:53 | -34.19695 | 140.67362 | 116 ft | 40 kts | 74° |
| 2026-04-29 05:54 | -34.19621 | 140.67676 | 115 ft | 33 kts | 73° |
| 2026-04-29 05:54 | -34.19695 | 140.67805 | 119 ft | 22 kts | 104° |
| 2026-04-29 05:54 | -34.19711 | 140.68010 | 117 ft | 15 kts | 95° |
| 2026-04-29 05:54 | -34.19805 | 140.68077 | 118 ft | 29 kts | 129° |
| 2026-04-29 05:55 | -34.19895 | 140.68228 | 118 ft | 9 kts | 185° |
| 2026-04-29 05:55 | -34.19880 | 140.68172 | 118 ft | 13 kts | 322° |
| 2026-04-29 05:55 | -34.19855 | 140.68183 | 117 ft | 1 kts | 124° |
| 2026-04-29 05:55 | -34.19856 | 140.68185 | 117 ft | 0 kts | 125° |